Shoryu Maru — JD2864 — position and weather

sailwx.info

Track history (hours):
 
Tides and Currents Weather Stations Pressure Air Temp Water Temp Dewpoint Dewpoint Depression Visibility Wind Speed Wind Dir Waves Ship Positions

Shoryu Maru

Last reported at 2017-Oct-20 12:30 UTC. Time now 2017-Oct-20 12:42 UTC.
Position N 35°18' E 139°44'.

Length 62 m; draft 3.9 m.

Type: Tanker. MMSI: 431000689.

Date/timePositionNaut miles runAvg speedWind from/ knotsBaromVisibWave heightAir tempDewpointWater temp
2017-Oct-20 12:30N 35°18' E 139°44'612.2
2017-Oct-20 12:01N 35°23' E 139°43'612.7
2017-Oct-20 11:31N 35°28' E 139°48'5 0.2
2017-Oct-19 11:30N 35°29' E 139°55'5 0.8
2017-Oct-19 05:32N 35°31' E 140°00'4 1.7
2017-Oct-19 03:01N 35°29' E 139°56'2 9.8
2017-Oct-19 02:51N 35°29' E 139°58'2 0.6
2017-Oct-18 23:18N 35°28' E 139°60'1 3.8
2017-Oct-18 23:00N 35°29' E 139°59'3 0.3
2017-Oct-18 13:42N 35°29' E 139°56'0 0.0
2017-Oct-18 13:27N 35°29' E 139°56'0 0.0
2017-Oct-18 12:48N 35°29' E 139°56'0 0.0
2017-Oct-18 12:30N 35°29' E 139°56'0 0.0
2017-Oct-18 11:57N 35°29' E 139°56'0 0.0
2017-Oct-18 11:30N 35°29' E 139°56'0 0.0
2017-Oct-18 11:00N 35°29' E 139°56'0 0.0
2017-Oct-18 10:30N 35°29' E 139°56'0 0.0
2017-Oct-18 09:57N 35°29' E 139°56'0 0.0
2017-Oct-18 09:27N 35°29' E 139°56'0 0.0
2017-Oct-18 09:00N 35°29' E 139°56'0 0.0
2017-Oct-18 08:30N 35°29' E 139°56'0 0.0
2017-Oct-18 08:00N 35°29' E 139°56'1 0.2
2017-Oct-18 02:01N 35°30' E 139°56'010.3
2017-Oct-18 02:00N 35°29' E 139°56'1 2.0
2017-Oct-18 01:24N 35°29' E 139°55'0 0.0
2017-Oct-18 01:00N 35°29' E 139°55'0 0.0
2017-Oct-18 00:00N 35°29' E 139°55'0 0.0
2017-Oct-17 22:48N 35°29' E 139°55'0 0.0
2017-Oct-17 19:53N 35°29' E 139°55'3 7.5
2017-Oct-17 19:30N 35°28' E 139°51'611.9
2017-Oct-17 19:00N 35°24' E 139°46'612.0
2017-Oct-17 18:30N 35°18' E 139°44'611.9
2017-Oct-17 18:00N 35°13' E 139°47'612.5
2017-Oct-17 17:30N 35°06' E 139°45'612.7
2017-Oct-17 17:00N 35°03' E 139°39'713.3
2017-Oct-17 16:29N 34°60' E 139°32'  
2017-Oct-14 08:34N 34°58' E 139°27'111.0
2017-Oct-14 08:30N 34°58' E 139°27'611.4
2017-Oct-14 08:00N 35°02' E 139°33'612.2
2017-Oct-14 07:30N 35°05' E 139°39'612.6
2017-Oct-14 07:00N 35°10' E 139°44'612.2
2017-Oct-14 06:30N 35°16' E 139°46'612.6
2017-Oct-14 06:00N 35°21' E 139°42'611.9
2017-Oct-14 05:30N 35°26' E 139°46'712.9
2017-Oct-14 05:00N 35°30' E 139°53'4 0.6
2017-Oct-13 22:44N 35°30' E 139°57'3 0.2
2017-Oct-13 09:41N 35°28' E 139°54'1 5.4
2017-Oct-13 09:30N 35°28' E 139°53'611.7
2017-Oct-13 09:00N 35°25' E 139°47'611.9
2017-Oct-13 08:30N 35°20' E 139°44'611.4
2017-Oct-13 08:00N 35°14' E 139°47'612.0
2017-Oct-13 07:30N 35°08' E 139°45'611.7
2017-Oct-13 07:00N 35°04' E 139°41'612.1
2017-Oct-13 06:30N 34°60' E 139°35'613.0
2017-Oct-13 06:00N 34°56' E 139°29'  
Track history (hours):
 
Tides and Currents Weather Stations Pressure Air Temp Water Temp Dewpoint Dewpoint Depression Visibility Wind Speed Wind Dir Waves Ship Positions

Shoryu Maru

Last reported at 2017-Oct-20 12:30 UTC. Time now 2017-Oct-20 12:42 UTC.
Position N 35°18' E 139°44'.

Length 62 m; draft 3.9 m.

Type: Tanker. MMSI: 431000689.

Date/timePositionNaut miles runAvg speedWind from/ knotsBaromVisibWave heightAir tempDewpointWater temp
2017-Oct-20 12:30N 35°18' E 139°44'612.2
2017-Oct-20 12:01N 35°23' E 139°43'612.7
2017-Oct-20 11:31N 35°28' E 139°48'5 0.2
2017-Oct-19 11:30N 35°29' E 139°55'5 0.8
2017-Oct-19 05:32N 35°31' E 140°00'4 1.7
2017-Oct-19 03:01N 35°29' E 139°56'2 9.8
2017-Oct-19 02:51N 35°29' E 139°58'2 0.6
2017-Oct-18 23:18N 35°28' E 139°60'1 3.8
2017-Oct-18 23:00N 35°29' E 139°59'3 0.3
2017-Oct-18 13:42N 35°29' E 139°56'0 0.0
2017-Oct-18 13:27N 35°29' E 139°56'0 0.0
2017-Oct-18 12:48N 35°29' E 139°56'0 0.0
2017-Oct-18 12:30N 35°29' E 139°56'0 0.0
2017-Oct-18 11:57N 35°29' E 139°56'0 0.0
2017-Oct-18 11:30N 35°29' E 139°56'0 0.0
2017-Oct-18 11:00N 35°29' E 139°56'0 0.0
2017-Oct-18 10:30N 35°29' E 139°56'0 0.0
2017-Oct-18 09:57N 35°29' E 139°56'0 0.0
2017-Oct-18 09:27N 35°29' E 139°56'0 0.0
2017-Oct-18 09:00N 35°29' E 139°56'0 0.0
2017-Oct-18 08:30N 35°29' E 139°56'0 0.0
2017-Oct-18 08:00N 35°29' E 139°56'1 0.2
2017-Oct-18 02:01N 35°30' E 139°56'010.3
2017-Oct-18 02:00N 35°29' E 139°56'1 2.0
2017-Oct-18 01:24N 35°29' E 139°55'0 0.0
2017-Oct-18 01:00N 35°29' E 139°55'0 0.0
2017-Oct-18 00:00N 35°29' E 139°55'0 0.0
2017-Oct-17 22:48N 35°29' E 139°55'0 0.0
2017-Oct-17 19:53N 35°29' E 139°55'3 7.5
2017-Oct-17 19:30N 35°28' E 139°51'611.9
2017-Oct-17 19:00N 35°24' E 139°46'612.0
2017-Oct-17 18:30N 35°18' E 139°44'611.9
2017-Oct-17 18:00N 35°13' E 139°47'612.5
2017-Oct-17 17:30N 35°06' E 139°45'612.7
2017-Oct-17 17:00N 35°03' E 139°39'713.3
2017-Oct-17 16:29N 34°60' E 139°32'  
2017-Oct-14 08:34N 34°58' E 139°27'111.0
2017-Oct-14 08:30N 34°58' E 139°27'611.4
2017-Oct-14 08:00N 35°02' E 139°33'612.2
2017-Oct-14 07:30N 35°05' E 139°39'612.6
2017-Oct-14 07:00N 35°10' E 139°44'612.2
2017-Oct-14 06:30N 35°16' E 139°46'612.6
2017-Oct-14 06:00N 35°21' E 139°42'611.9
2017-Oct-14 05:30N 35°26' E 139°46'712.9
2017-Oct-14 05:00N 35°30' E 139°53'4 0.6
2017-Oct-13 22:44N 35°30' E 139°57'3 0.2
2017-Oct-13 09:41N 35°28' E 139°54'1 5.4
2017-Oct-13 09:30N 35°28' E 139°53'611.7
2017-Oct-13 09:00N 35°25' E 139°47'611.9
2017-Oct-13 08:30N 35°20' E 139°44'611.4
2017-Oct-13 08:00N 35°14' E 139°47'612.0
2017-Oct-13 07:30N 35°08' E 139°45'611.7
2017-Oct-13 07:00N 35°04' E 139°41'612.1
2017-Oct-13 06:30N 34°60' E 139°35'613.0
2017-Oct-13 06:00N 34°56' E 139°29'  

Dump ship's entire track history